createdAt,value
2022-08-28T00:00:25.546Z,72.18
2022-08-28T00:02:53.201Z,72.01
2022-08-28T00:05:22.853Z,72.66
2022-08-28T00:07:54.652Z,72.16
2022-08-28T00:10:24.067Z,72.20
2022-08-28T00:12:52.678Z,72.43
2022-08-28T00:15:24.016Z,72.03
2022-08-28T00:17:50.823Z,72.02
2022-08-28T00:20:19.876Z,72.17
2022-08-28T00:22:46.746Z,72.21
2022-08-28T00:25:15.432Z,71.94
2022-08-28T00:27:55.020Z,72.31
2022-08-28T00:30:28.218Z,72.18
2022-08-28T00:32:59.415Z,72.46
2022-08-28T00:35:27.042Z,72.01
2022-08-28T00:37:54.872Z,72.41
2022-08-28T00:40:28.777Z,72.61
2022-08-28T00:43:00.365Z,72.36
2022-08-28T00:45:28.014Z,72.41
2022-08-28T00:47:54.451Z,71.80
2022-08-28T00:50:24.601Z,72.13
2022-08-28T00:52:57.497Z,71.38
2022-08-28T00:55:26.854Z,71.93
2022-08-28T00:57:56.491Z,71.66
2022-08-28T01:00:30.877Z,71.59
2022-08-28T01:02:58.184Z,71.42
2022-08-28T01:05:26.307Z,71.94
2022-08-28T01:07:54.059Z,71.52
2022-08-28T01:10:23.862Z,71.52
2022-08-28T01:12:51.350Z,71.88
2022-08-28T01:15:24.301Z,71.28
2022-08-28T01:17:53.707Z,71.46
2022-08-28T01:20:24.810Z,71.62
2022-08-28T01:23:00.905Z,71.48
2022-08-28T01:25:31.834Z,71.03
2022-08-28T01:27:58.921Z,71.67
2022-08-28T01:30:25.543Z,71.48
2022-08-28T01:32:55.642Z,71.46
2022-08-28T01:35:28.794Z,71.15
2022-08-28T01:37:56.169Z,71.24
2022-08-28T01:40:39.217Z,71.27
2022-08-28T01:43:11.824Z,71.55
2022-08-28T01:45:42.214Z,71.38
2022-08-28T01:48:08.749Z,71.38
2022-08-28T01:50:35.470Z,71.52
2022-08-28T01:53:12.332Z,71.18
2022-08-28T01:55:39.301Z,71.52
2022-08-28T01:58:07.150Z,71.57
2022-08-28T02:00:38.518Z,71.33
2022-08-28T02:03:07.620Z,71.18
2022-08-28T02:05:35.819Z,71.12
2022-08-28T02:08:07.145Z,70.99
2022-08-28T02:10:35.729Z,71.70
2022-08-28T02:13:03.981Z,71.31
2022-08-28T02:15:37.405Z,71.55
2022-08-28T02:18:08.442Z,71.21
2022-08-28T02:20:35.193Z,71.12
2022-08-28T02:23:01.799Z,71.53
2022-08-28T02:25:30.820Z,71.17
2022-08-28T02:27:57.817Z,71.58
2022-08-28T02:30:24.535Z,71.40
2022-08-28T02:32:53.615Z,71.35
2022-08-28T02:35:23.191Z,71.79
2022-08-28T02:37:50.480Z,71.41
2022-08-28T02:40:19.592Z,71.77
2022-08-28T02:42:49.211Z,71.67
2022-08-28T02:45:17.443Z,71.79
2022-08-28T02:47:45.648Z,71.50
2022-08-28T02:50:15.664Z,72.03
2022-08-28T02:52:42.600Z,72.16
2022-08-28T02:55:10.831Z,71.94
2022-08-28T02:57:37.424Z,72.47
2022-08-28T03:00:10.078Z,72.12
2022-08-28T03:02:36.775Z,72.07
2022-08-28T03:05:04.060Z,72.13
2022-08-28T03:07:30.873Z,71.79
2022-08-28T03:09:57.418Z,72.15
2022-08-28T03:12:24.356Z,72.36
2022-08-28T03:14:54.605Z,72.38
2022-08-28T03:17:22.091Z,72.01
2022-08-28T03:19:50.035Z,72.22
2022-08-28T03:22:17.493Z,72.12
2022-08-28T03:24:44.898Z,71.90
2022-08-28T03:27:11.687Z,72.10
2022-08-28T03:29:38.232Z,72.04
2022-08-28T03:32:07.248Z,72.02
2022-08-28T03:34:33.771Z,72.11
2022-08-28T03:37:01.176Z,72.01
2022-08-28T03:39:30.653Z,72.51
2022-08-28T03:41:57.150Z,72.17
2022-08-28T03:44:23.653Z,72.12
2022-08-28T03:46:54.873Z,73.21
2022-08-28T03:49:21.932Z,72.67
2022-08-28T03:51:49.603Z,72.48
2022-08-28T03:54:18.681Z,72.41
2022-08-28T03:56:45.094Z,72.22
2022-08-28T03:59:11.535Z,72.39
2022-08-28T04:01:38.309Z,72.25
2022-08-28T04:04:09.603Z,72.31
2022-08-28T04:06:38.614Z,71.82
2022-08-28T04:09:05.797Z,72.20
2022-08-28T04:11:37.448Z,72.56
2022-08-28T04:14:07.798Z,73.28
2022-08-28T04:16:36.719Z,72.38
2022-08-28T04:19:03.608Z,72.43
2022-08-28T04:21:30.406Z,72.76
2022-08-28T04:23:56.960Z,72.58
2022-08-28T04:26:26.173Z,72.88
2022-08-28T04:28:53.841Z,73.54
2022-08-28T04:31:31.923Z,73.70
2022-08-28T04:34:06.211Z,72.95
2022-08-28T04:36:35.769Z,72.70
2022-08-28T04:39:03.114Z,72.92
2022-08-28T04:41:30.480Z,73.06
2022-08-28T04:43:57.785Z,73.33
2022-08-28T04:46:25.193Z,73.14
2022-08-28T04:48:57.460Z,73.19
2022-08-28T04:51:23.941Z,73.28
2022-08-28T04:53:52.773Z,73.26
2022-08-28T04:56:21.664Z,73.46
2022-08-28T04:58:48.162Z,73.23
2022-08-28T05:01:18.851Z,73.19
2022-08-28T05:03:53.989Z,73.34
2022-08-28T05:06:21.763Z,73.30
2022-08-28T05:08:48.334Z,73.41
2022-08-28T05:11:30.738Z,73.27
2022-08-28T05:14:05.593Z,73.51
2022-08-28T05:16:34.954Z,73.57
2022-08-28T05:19:02.019Z,73.49
2022-08-28T05:21:28.510Z,73.28
2022-08-28T05:23:57.459Z,73.36
2022-08-28T05:26:27.096Z,73.98
2022-08-28T05:28:56.287Z,73.63
2022-08-28T05:31:24.103Z,73.55
2022-08-28T05:33:52.677Z,73.41
2022-08-28T05:36:22.043Z,73.81
2022-08-28T05:38:49.393Z,73.37
2022-08-28T05:41:25.017Z,73.40
2022-08-28T05:43:54.660Z,73.67
2022-08-28T05:46:22.299Z,73.94
2022-08-28T05:48:49.389Z,73.50
2022-08-28T05:51:20.097Z,72.99
2022-08-28T05:53:49.839Z,73.05
2022-08-28T05:56:19.728Z,73.20
2022-08-28T05:58:46.285Z,73.19
2022-08-28T06:01:14.649Z,72.87
2022-08-28T06:03:43.606Z,72.89
2022-08-28T06:06:12.548Z,73.24
2022-08-28T06:08:58.049Z,72.73
2022-08-28T06:11:30.409Z,72.90
2022-08-28T06:14:03.317Z,72.72
2022-08-28T06:16:32.515Z,72.64
2022-08-28T06:19:01.681Z,72.36
2022-08-28T06:21:29.033Z,72.58
2022-08-28T06:23:56.220Z,71.77
2022-08-28T06:26:23.734Z,71.91
2022-08-28T06:28:53.070Z,71.61
2022-08-28T06:31:23.729Z,71.51
2022-08-28T06:33:51.957Z,71.53
2022-08-28T06:36:18.361Z,71.72
2022-08-28T06:38:46.712Z,71.30
2022-08-28T06:41:15.526Z,71.36
2022-08-28T06:43:44.724Z,71.25
2022-08-28T06:46:11.214Z,70.99
2022-08-28T06:48:37.800Z,70.98
2022-08-28T06:51:14.575Z,70.82
2022-08-28T06:53:45.708Z,70.72
2022-08-28T06:56:26.404Z,70.97
2022-08-28T06:58:56.022Z,70.06
2022-08-28T07:01:34.798Z,70.06
2022-08-28T07:04:06.424Z,69.90
2022-08-28T07:06:35.559Z,69.94
2022-08-28T07:09:05.219Z,69.83
2022-08-28T07:11:33.791Z,69.90
2022-08-28T07:14:01.635Z,69.67
2022-08-28T07:16:32.836Z,69.50
2022-08-28T07:18:59.809Z,69.92
2022-08-28T07:21:26.874Z,69.74
2022-08-28T07:23:54.924Z,69.36
2022-08-28T07:26:23.757Z,70.02
2022-08-28T07:28:51.916Z,69.88
2022-08-28T07:31:22.502Z,69.61
2022-08-28T07:33:50.859Z,69.85
2022-08-28T07:36:29.452Z,68.87
2022-08-28T07:38:59.676Z,68.64
2022-08-28T07:41:35.454Z,67.71
2022-08-28T07:44:20.893Z,66.92
2022-08-28T07:46:59.173Z,67.60
2022-08-28T07:49:26.462Z,65.76
2022-08-28T07:51:54.075Z,66.09
2022-08-28T07:54:24.195Z,66.10
2022-08-28T07:56:55.442Z,65.65
2022-08-28T07:59:22.272Z,64.85
2022-08-28T08:01:51.455Z,64.87
2022-08-28T08:04:19.993Z,65.29
2022-08-28T08:06:46.902Z,64.98
2022-08-28T08:09:15.788Z,65.12
2022-08-28T08:11:42.636Z,64.37
2022-08-28T08:14:11.882Z,64.21
2022-08-28T08:16:43.450Z,64.59
2022-08-28T08:19:10.469Z,63.97
2022-08-28T08:21:40.018Z,64.41
2022-08-28T08:24:07.366Z,63.84
2022-08-28T08:26:34.140Z,63.71
2022-08-28T08:29:00.738Z,63.46
2022-08-28T08:31:35.220Z,62.95
2022-08-28T08:34:05.664Z,62.80
2022-08-28T08:36:34.429Z,63.69
2022-08-28T08:39:06.559Z,63.20
2022-08-28T08:41:48.219Z,62.35
2022-08-28T08:44:33.610Z,62.14
2022-08-28T08:47:41.362Z,62.87
2022-08-28T08:50:17.349Z,62.51
2022-08-28T08:53:04.918Z,61.26
2022-08-28T08:55:35.660Z,62.08
2022-08-28T08:58:07.155Z,62.79
2022-08-28T09:00:37.415Z,61.87
2022-08-28T09:03:15.080Z,62.84
2022-08-28T09:06:12.593Z,62.98
2022-08-28T09:08:47.466Z,63.52
2022-08-28T09:11:58.413Z,63.24
2022-08-28T09:14:45.420Z,62.35
2022-08-28T09:17:17.850Z,60.51
2022-08-28T09:19:44.293Z,60.74
2022-08-28T09:22:11.483Z,62.27
2022-08-28T09:24:41.267Z,60.54
2022-08-28T09:27:27.423Z,60.41
2022-08-28T09:29:58.796Z,61.27
2022-08-28T09:32:41.510Z,61.57
2022-08-28T09:35:16.290Z,60.96
2022-08-28T09:37:44.053Z,61.10
2022-08-28T09:40:13.780Z,59.17
2022-08-28T09:42:59.240Z,59.29
2022-08-28T09:45:28.795Z,59.52
2022-08-28T09:48:00.612Z,59.82
2022-08-28T09:50:43.429Z,59.09
2022-08-28T09:53:09.820Z,59.57
2022-08-28T09:55:42.948Z,58.86
2022-08-28T09:58:09.867Z,57.64
2022-08-28T10:00:41.470Z,58.79
2022-08-28T10:03:09.390Z,58.54
2022-08-28T10:05:50.136Z,57.58
2022-08-28T10:08:31.253Z,55.01
2022-08-28T10:11:04.244Z,55.81
2022-08-28T10:13:41.941Z,56.16
2022-08-28T10:16:44.726Z,54.37
2022-08-28T10:19:39.189Z,52.55
2022-08-28T10:22:33.455Z,54.74
2022-08-28T10:25:20.769Z,54.55
2022-08-28T10:28:12.387Z,54.40
2022-08-28T10:30:52.944Z,54.60
2022-08-28T10:33:45.810Z,54.70
2022-08-28T10:36:34.305Z,54.09
2022-08-28T10:39:28.023Z,53.68
2022-08-28T10:41:58.810Z,54.61
2022-08-28T10:44:49.836Z,54.79
2022-08-28T10:47:22.230Z,54.04
2022-08-28T10:49:52.610Z,52.81
2022-08-28T10:52:27.474Z,53.12
2022-08-28T10:55:00.193Z,53.34
2022-08-28T10:57:49.167Z,52.99
2022-08-28T11:00:20.043Z,52.45
2022-08-28T11:03:22.209Z,52.79
2022-08-28T11:06:03.374Z,52.60
2022-08-28T11:08:29.741Z,51.17
2022-08-28T11:10:58.970Z,50.65
2022-08-28T11:13:47.158Z,52.52
2022-08-28T11:16:37.415Z,52.30
2022-08-28T11:19:40.858Z,52.08
2022-08-28T11:22:19.113Z,51.38
2022-08-28T11:24:55.149Z,51.18
2022-08-28T11:27:23.468Z,50.60
2022-08-28T11:30:08.939Z,50.79
2022-08-28T11:32:37.554Z,50.43
2022-08-28T11:35:10.638Z,49.87
2022-08-28T11:37:46.164Z,50.00
2022-08-28T11:40:28.153Z,51.05
2022-08-28T11:43:14.202Z,49.64
2022-08-28T11:45:42.979Z,47.43
2022-08-28T11:48:25.593Z,47.54
2022-08-28T11:51:09.696Z,48.28
2022-08-28T11:53:49.294Z,46.62
2022-08-28T11:56:53.491Z,47.63
2022-08-28T11:59:43.466Z,46.64
2022-08-28T12:02:46.497Z,46.55
2022-08-28T12:05:15.956Z,47.83
2022-08-28T12:07:43.732Z,48.01
2022-08-28T12:10:22.413Z,47.85
2022-08-28T12:12:56.222Z,48.48
2022-08-28T12:15:31.210Z,47.54
2022-08-28T12:18:15.382Z,47.17
2022-08-28T12:20:51.060Z,46.61
2022-08-28T12:23:26.037Z,48.38
2022-08-28T12:26:03.834Z,48.60
2022-08-28T12:28:33.642Z,47.66
2022-08-28T12:31:08.586Z,45.87
2022-08-28T12:33:49.674Z,46.34
2022-08-28T12:36:18.514Z,47.28
2022-08-28T12:38:53.654Z,45.72
2022-08-28T12:41:25.037Z,44.49
2022-08-28T12:43:56.602Z,43.00
2022-08-28T12:46:36.252Z,43.54
2022-08-28T12:49:05.879Z,44.06
2022-08-28T12:51:35.652Z,43.78
2022-08-28T12:54:05.205Z,43.63
2022-08-28T12:56:37.056Z,42.26
2022-08-28T12:59:23.148Z,44.76
2022-08-28T13:01:54.750Z,44.31
2022-08-28T13:04:35.744Z,43.74
2022-08-28T13:07:11.340Z,42.94
2022-08-28T13:09:43.054Z,43.37
2022-08-28T13:12:19.117Z,44.56
2022-08-28T13:14:48.171Z,45.60
2022-08-28T13:17:35.639Z,46.19
2022-08-28T13:20:06.713Z,42.31
2022-08-28T13:22:40.334Z,43.24
2022-08-28T13:25:10.383Z,44.51
2022-08-28T13:27:42.160Z,42.59
2022-08-28T13:30:14.442Z,42.98
2022-08-28T13:32:40.915Z,45.17
2022-08-28T13:35:25.500Z,44.60
2022-08-28T13:37:58.963Z,43.95
2022-08-28T13:40:56.319Z,43.88
2022-08-28T13:43:16.220Z,44.08
2022-08-28T13:45:45.380Z,41.90
2022-08-28T13:48:14.226Z,42.69
2022-08-28T13:50:46.441Z,43.18
2022-08-28T13:53:14.268Z,42.80
2022-08-28T13:55:43.803Z,42.98
2022-08-28T13:58:10.652Z,43.57
2022-08-28T14:00:41.699Z,42.75
2022-08-28T14:03:26.568Z,43.08
2022-08-28T14:05:54.270Z,43.75
2022-08-28T14:08:21.882Z,43.93
2022-08-28T14:10:52.019Z,43.76
2022-08-28T14:13:19.898Z,44.25
2022-08-28T14:15:47.421Z,44.42
2022-08-28T14:18:13.995Z,43.90
2022-08-28T14:20:40.797Z,44.29
2022-08-28T14:23:09.211Z,43.56
2022-08-28T14:25:42.201Z,44.74
2022-08-28T14:28:09.033Z,44.89
2022-08-28T14:30:42.362Z,45.60
2022-08-28T14:33:09.214Z,44.95
2022-08-28T14:35:41.068Z,46.28
2022-08-28T14:38:08.823Z,45.00
2022-08-28T14:40:40.520Z,44.97
2022-08-28T14:43:09.980Z,44.80
2022-08-28T14:45:48.534Z,45.56
2022-08-28T14:48:17.294Z,44.16
2022-08-28T14:50:45.986Z,43.69
2022-08-28T14:53:13.918Z,44.56
2022-08-28T14:55:46.269Z,44.04
2022-08-28T14:58:13.270Z,43.83
2022-08-28T15:00:46.564Z,43.75
2022-08-28T15:03:13.818Z,42.81
2022-08-28T15:05:41.600Z,42.48
2022-08-28T15:08:10.156Z,42.01
2022-08-28T15:10:42.194Z,42.24
2022-08-28T15:13:10.371Z,42.32
2022-08-28T15:15:42.212Z,41.70
2022-08-28T15:18:10.236Z,42.85
2022-08-28T15:20:41.814Z,42.33
2022-08-28T15:23:13.559Z,42.97
2022-08-28T15:25:40.720Z,42.20
2022-08-28T15:28:07.422Z,43.33
2022-08-28T15:30:34.208Z,42.62
2022-08-28T15:33:00.802Z,42.90
2022-08-28T15:35:27.312Z,42.46
2022-08-28T15:37:53.879Z,43.11
2022-08-28T15:40:39.896Z,42.60
2022-08-28T15:43:06.599Z,42.99
2022-08-28T15:45:41.949Z,42.04
2022-08-28T15:48:10.744Z,41.11
2022-08-28T15:50:37.943Z,41.20
2022-08-28T15:53:06.117Z,41.27
2022-08-28T15:55:33.960Z,41.79
2022-08-28T15:58:03.218Z,42.07
2022-08-28T16:00:33.589Z,41.79
2022-08-28T16:03:01.043Z,41.49
2022-08-28T16:05:40.805Z,42.01
2022-08-28T16:08:07.891Z,41.68
2022-08-28T16:10:34.419Z,41.43
2022-08-28T16:13:06.491Z,41.08
2022-08-28T16:15:33.822Z,40.97
2022-08-28T16:18:00.224Z,41.06
2022-08-28T16:20:26.770Z,41.22
2022-08-28T16:22:53.258Z,41.13
2022-08-28T16:25:19.791Z,41.32
2022-08-28T16:27:46.269Z,40.76
2022-08-28T16:30:15.868Z,41.55
2022-08-28T16:32:42.645Z,40.84
2022-08-28T16:35:14.866Z,41.65
2022-08-28T16:37:42.176Z,41.28
2022-08-28T16:40:09.877Z,41.78
2022-08-28T16:42:36.578Z,41.99
2022-08-28T16:45:04.631Z,42.03
2022-08-28T16:47:33.124Z,41.98
2022-08-28T16:50:08.396Z,41.19
2022-08-28T16:52:36.197Z,41.60
2022-08-28T16:55:04.475Z,41.41
2022-08-28T16:57:31.251Z,41.73
2022-08-28T16:59:57.975Z,42.10
2022-08-28T17:02:29.950Z,41.97
2022-08-28T17:05:00.483Z,41.17
2022-08-28T17:07:27.317Z,41.07
2022-08-28T17:09:53.735Z,40.88
2022-08-28T17:12:20.625Z,42.22
2022-08-28T17:14:47.113Z,42.08
2022-08-28T17:17:15.787Z,41.98
2022-08-28T17:19:42.325Z,42.53
2022-08-28T17:22:27.554Z,42.30
2022-08-28T17:24:54.350Z,42.26
2022-08-28T17:27:22.648Z,41.87
2022-08-28T17:29:50.392Z,42.53
2022-08-28T17:32:16.844Z,42.51
2022-08-28T17:34:43.352Z,43.40
2022-08-28T17:37:10.962Z,42.88
2022-08-28T17:39:38.085Z,42.90
2022-08-28T17:42:04.611Z,42.96
2022-08-28T17:44:31.062Z,42.87
2022-08-28T17:47:00.931Z,43.08
2022-08-28T17:49:27.561Z,43.00
2022-08-28T17:51:54.232Z,42.90
2022-08-28T17:54:22.678Z,43.36
2022-08-28T17:56:49.491Z,43.39
2022-08-28T17:59:16.838Z,43.40
2022-08-28T18:01:49.451Z,43.36
2022-08-28T18:04:24.489Z,43.59
2022-08-28T18:06:54.149Z,100.00
2022-08-28T18:09:21.363Z,100.00
2022-08-28T18:11:50.888Z,100.00
2022-08-28T18:14:17.965Z,100.00
2022-08-28T18:16:53.393Z,44.92
2022-08-28T18:19:20.190Z,44.14
2022-08-28T18:21:47.118Z,44.02
2022-08-28T18:24:14.007Z,44.13
2022-08-28T18:26:41.302Z,45.05
2022-08-28T18:29:07.761Z,43.77
2022-08-28T18:31:34.310Z,44.10
2022-08-28T18:34:01.109Z,44.37
2022-08-28T18:36:27.826Z,44.44
2022-08-28T18:38:54.222Z,44.51
2022-08-28T18:41:20.856Z,44.38
2022-08-28T18:43:48.152Z,44.75
2022-08-28T18:46:14.724Z,44.57
2022-08-28T18:48:44.121Z,45.07
2022-08-28T18:51:12.058Z,45.64
2022-08-28T18:53:39.002Z,45.56
2022-08-28T18:56:10.050Z,46.06
2022-08-28T18:58:41.736Z,45.56
2022-08-28T19:01:09.615Z,45.62
2022-08-28T19:03:36.340Z,45.83
2022-08-28T19:06:03.290Z,45.88
2022-08-28T19:08:30.310Z,45.71
2022-08-28T19:10:56.885Z,46.16
2022-08-28T19:13:27.880Z,46.45
2022-08-28T19:15:54.440Z,47.66
2022-08-28T19:18:21.029Z,48.60
2022-08-28T19:20:48.043Z,48.55
2022-08-28T19:23:17.684Z,47.54
2022-08-28T19:25:45.064Z,48.02
2022-08-28T19:28:11.593Z,48.34
2022-08-28T19:30:38.311Z,48.92
2022-08-28T19:33:05.712Z,48.80
2022-08-28T19:35:33.680Z,49.47
2022-08-28T19:38:00.143Z,50.54
2022-08-28T19:40:29.186Z,50.68
2022-08-28T19:42:55.711Z,51.61
2022-08-28T19:45:22.187Z,51.84
2022-08-28T19:47:49.008Z,51.67
2022-08-28T19:50:16.194Z,52.33
2022-08-28T19:52:43.297Z,53.19
2022-08-28T19:55:18.281Z,52.73
2022-08-28T19:57:46.768Z,54.01
2022-08-28T20:00:15.215Z,54.95
2022-08-28T20:02:41.963Z,53.74
2022-08-28T20:05:09.272Z,53.02
2022-08-28T20:07:35.953Z,54.20
2022-08-28T20:10:05.759Z,54.49
2022-08-28T20:12:34.370Z,54.73
2022-08-28T20:15:03.767Z,55.96
2022-08-28T20:17:30.673Z,55.89
2022-08-28T20:20:02.318Z,55.61
2022-08-28T20:22:29.582Z,56.96
2022-08-28T20:24:56.013Z,56.03
2022-08-28T20:27:22.419Z,56.84
2022-08-28T20:29:51.171Z,56.78
2022-08-28T20:32:17.712Z,56.23
2022-08-28T20:34:44.673Z,56.66
2022-08-28T20:37:11.329Z,55.73
2022-08-28T20:39:41.455Z,56.73
2022-08-28T20:42:09.397Z,56.50
2022-08-28T20:44:35.925Z,58.15
2022-08-28T20:47:02.370Z,57.46
2022-08-28T20:49:29.041Z,58.02
2022-08-28T20:51:57.544Z,57.38
2022-08-28T20:54:38.205Z,57.23
2022-08-28T20:57:08.593Z,57.61
2022-08-28T20:59:40.383Z,56.74
2022-08-28T21:02:15.888Z,56.98
2022-08-28T21:04:44.120Z,56.32
2022-08-28T21:07:12.542Z,55.82
2022-08-28T21:10:03.829Z,55.45
2022-08-28T21:12:28.690Z,56.22
2022-08-28T21:14:55.249Z,54.60
2022-08-28T21:17:26.726Z,54.44
2022-08-28T21:19:56.616Z,54.69
2022-08-28T21:22:23.239Z,53.72
2022-08-28T21:24:49.924Z,53.49
2022-08-28T21:27:16.404Z,54.53
2022-08-28T21:29:45.997Z,53.53
2022-08-28T21:32:13.274Z,53.26
2022-08-28T21:34:39.855Z,53.23
2022-08-28T21:37:08.833Z,52.64
2022-08-28T21:39:35.355Z,52.83
2022-08-28T21:42:01.900Z,54.18
2022-08-28T21:44:28.968Z,55.05
2022-08-28T21:46:55.403Z,55.34
2022-08-28T21:49:24.139Z,55.04
2022-08-28T21:51:50.645Z,55.30
2022-08-28T21:54:18.182Z,55.86
2022-08-28T21:56:45.130Z,56.24
2022-08-28T21:59:12.584Z,56.31
2022-08-28T22:01:39.161Z,55.61
2022-08-28T22:04:07.998Z,56.56
2022-08-28T22:06:34.568Z,55.67
2022-08-28T22:09:04.877Z,55.73
2022-08-28T22:11:31.938Z,56.08
2022-08-28T22:14:01.646Z,57.69
2022-08-28T22:16:28.543Z,56.59
2022-08-28T22:19:00.270Z,56.00
2022-08-28T22:21:45.640Z,55.45
2022-08-28T22:24:13.251Z,56.12
2022-08-28T22:26:41.604Z,57.13
2022-08-28T22:29:08.806Z,56.50
2022-08-28T22:31:35.574Z,56.48
2022-08-28T22:34:06.057Z,56.17
2022-08-28T22:36:35.703Z,57.75
2022-08-28T22:39:02.183Z,57.51
2022-08-28T22:41:30.128Z,57.16
2022-08-28T22:43:56.929Z,58.55
2022-08-28T22:46:23.493Z,57.86
2022-08-28T22:48:52.550Z,57.00
2022-08-28T22:51:19.243Z,57.30
2022-08-28T22:53:46.973Z,57.92
2022-08-28T22:56:14.501Z,58.20
2022-08-28T22:58:41.225Z,57.36
2022-08-28T23:01:17.575Z,57.04
2022-08-28T23:03:45.139Z,56.94
2022-08-28T23:06:12.463Z,56.39
2022-08-28T23:08:39.376Z,55.54
2022-08-28T23:11:06.233Z,55.75
2022-08-28T23:13:33.234Z,54.89
2022-08-28T23:16:05.623Z,54.92
2022-08-28T23:19:03.923Z,54.89
2022-08-28T23:21:23.817Z,54.61
2022-08-28T23:23:52.981Z,54.19
2022-08-28T23:26:19.592Z,54.66
2022-08-28T23:28:48.647Z,54.67
2022-08-28T23:31:15.408Z,55.64
2022-08-28T23:33:42.518Z,54.69
2022-08-28T23:36:13.862Z,54.27
2022-08-28T23:38:42.940Z,55.20
2022-08-28T23:41:10.717Z,55.64
2022-08-28T23:43:37.338Z,54.64
2022-08-28T23:46:05.278Z,54.90
2022-08-28T23:48:32.388Z,56.33
2022-08-28T23:50:59.059Z,55.82
2022-08-28T23:53:28.709Z,55.10
2022-08-28T23:55:55.701Z,55.87
2022-08-28T23:58:22.499Z,56.47
